createdAt,value
2022-12-18T00:01:41.171Z,16.15
2022-12-18T00:06:42.680Z,16.10
2022-12-18T00:11:45.955Z,15.80
2022-12-18T00:16:47.327Z,15.87
2022-12-18T00:21:48.708Z,15.95
2022-12-18T00:26:50.071Z,15.74
2022-12-18T00:31:51.500Z,15.64
2022-12-18T00:36:52.903Z,15.32
2022-12-18T00:42:12.858Z,15.22
2022-12-18T00:47:14.625Z,15.57
2022-12-18T00:52:16.026Z,15.90
2022-12-18T00:57:17.456Z,15.81
2022-12-18T01:02:18.967Z,15.91
2022-12-18T01:07:20.440Z,15.82
2022-12-18T01:12:21.808Z,16.21
2022-12-18T01:17:23.240Z,16.01
2022-12-18T01:22:24.629Z,16.01
2022-12-18T01:27:25.996Z,15.79
2022-12-18T01:32:27.455Z,15.83
2022-12-18T01:37:28.847Z,15.85
2022-12-18T01:42:30.239Z,15.63
2022-12-18T01:47:40.177Z,15.57
2022-12-18T01:52:43.195Z,15.69
2022-12-18T01:57:44.552Z,15.83
2022-12-18T02:02:46.356Z,15.52
2022-12-18T02:08:07.556Z,15.73
2022-12-18T02:13:14.466Z,15.60
2022-12-18T02:18:20.162Z,15.79
2022-12-18T02:23:49.446Z,15.77
2022-12-18T02:28:54.806Z,15.39
2022-12-18T02:33:59.441Z,15.68
2022-12-18T02:39:01.104Z,15.41
2022-12-18T02:44:03.187Z,15.47
2022-12-18T02:49:13.146Z,15.28
2022-12-18T02:54:39.352Z,14.91
2022-12-18T02:59:44.504Z,15.16
2022-12-18T03:04:54.230Z,15.15
2022-12-18T03:09:55.656Z,14.92
2022-12-18T03:15:04.252Z,15.06
2022-12-18T03:20:11.602Z,14.83
2022-12-18T03:25:14.374Z,14.84
2022-12-18T03:30:16.026Z,15.08
2022-12-18T03:35:19.460Z,14.88
2022-12-18T03:40:22.463Z,14.79
2022-12-18T03:45:26.818Z,15.07
2022-12-18T03:50:49.597Z,14.88
2022-12-18T03:55:51.053Z,14.61
2022-12-18T04:00:53.107Z,14.97
2022-12-18T04:05:55.225Z,15.05
2022-12-18T04:10:56.622Z,14.91
2022-12-18T04:15:58.052Z,15.04
2022-12-18T04:20:59.489Z,15.03
2022-12-18T04:26:00.880Z,14.89
2022-12-18T04:31:02.354Z,15.01
2022-12-18T04:36:03.809Z,15.06
2022-12-18T04:41:05.223Z,14.83
2022-12-18T04:46:07.390Z,14.98
2022-12-18T04:51:08.820Z,14.67
2022-12-18T04:56:14.744Z,14.44
2022-12-18T05:01:17.296Z,14.78
2022-12-18T05:06:18.871Z,14.47
2022-12-18T05:11:21.323Z,14.51
2022-12-18T05:16:22.780Z,14.46
2022-12-18T05:21:24.184Z,14.82
2022-12-18T05:26:25.583Z,14.50
2022-12-18T05:31:27.015Z,14.54
2022-12-18T05:36:28.422Z,14.26
2022-12-18T05:41:29.798Z,14.25
2022-12-18T05:46:31.227Z,13.96
2022-12-18T05:51:32.600Z,14.14
2022-12-18T05:56:33.990Z,14.37
2022-12-18T06:01:35.626Z,14.53
2022-12-18T06:06:37.603Z,14.12
2022-12-18T06:11:39.141Z,14.48
2022-12-18T06:16:40.544Z,14.29
2022-12-18T06:21:42.004Z,14.17
2022-12-18T06:26:43.459Z,14.40
2022-12-18T06:31:44.889Z,14.57
2022-12-18T06:36:46.367Z,14.56
2022-12-18T06:41:47.891Z,14.31
2022-12-18T06:46:49.333Z,14.52
2022-12-18T06:51:50.708Z,14.28
2022-12-18T06:56:52.105Z,14.45
2022-12-18T07:01:53.581Z,14.05
2022-12-18T07:06:55.095Z,14.36
2022-12-18T07:11:56.836Z,14.44
2022-12-18T07:16:59.277Z,14.06
2022-12-18T07:22:01.561Z,14.34
2022-12-18T07:27:03.553Z,14.07
2022-12-18T07:32:05.596Z,14.39
2022-12-18T07:37:07.003Z,14.32
2022-12-18T07:42:26.740Z,14.20
2022-12-18T07:47:32.177Z,14.19
2022-12-18T07:52:33.580Z,14.68
2022-12-18T07:57:50.543Z,14.52
2022-12-18T08:02:53.449Z,14.74
2022-12-18T08:07:55.079Z,14.61
2022-12-18T08:13:01.414Z,14.53
2022-12-18T08:18:08.113Z,14.48
2022-12-18T08:23:12.774Z,14.58
2022-12-18T08:28:17.490Z,14.64
2022-12-18T08:33:18.864Z,14.81
2022-12-18T08:38:20.239Z,15.07
2022-12-18T08:43:40.298Z,15.11
2022-12-18T08:48:41.995Z,15.46
2022-12-18T08:53:43.557Z,15.50
2022-12-18T08:58:45.245Z,15.46
2022-12-18T09:03:46.604Z,15.81
2022-12-18T09:08:48.139Z,15.52
2022-12-18T09:13:49.766Z,16.02
2022-12-18T09:18:51.145Z,15.74
2022-12-18T09:23:52.839Z,15.93
2022-12-18T09:28:54.364Z,16.25
2022-12-18T09:33:57.188Z,16.37
2022-12-18T09:38:59.640Z,16.37
2022-12-18T09:44:06.464Z,15.93
2022-12-18T09:49:11.423Z,16.23
2022-12-18T09:54:15.323Z,16.05
2022-12-18T09:59:33.388Z,16.06
2022-12-18T10:04:34.836Z,16.02
2022-12-18T10:09:58.478Z,16.15
2022-12-18T10:15:11.653Z,16.35
2022-12-18T10:20:26.382Z,16.21
2022-12-18T10:25:49.297Z,16.52
2022-12-18T10:30:50.734Z,16.46
2022-12-18T10:35:52.204Z,16.64
2022-12-18T10:41:03.460Z,16.63
2022-12-18T10:46:10.387Z,16.91
2022-12-18T10:51:12.436Z,16.97
2022-12-18T10:56:14.796Z,17.08
2022-12-18T11:01:17.713Z,16.82
2022-12-18T11:06:22.519Z,16.66
2022-12-18T11:11:24.390Z,16.90
2022-12-18T11:16:25.958Z,16.84
2022-12-18T11:21:27.355Z,16.71
2022-12-18T11:26:35.247Z,16.70
2022-12-18T11:31:36.642Z,16.57
2022-12-18T11:36:40.565Z,16.63
2022-12-18T11:42:09.060Z,16.59
2022-12-18T11:47:38.013Z,16.73
2022-12-18T11:52:40.374Z,16.58
2022-12-18T11:58:19.954Z,16.64
2022-12-18T12:03:52.156Z,16.60
2022-12-18T12:09:10.384Z,16.61
2022-12-18T12:14:38.012Z,16.89
2022-12-18T12:19:53.949Z,16.60
2022-12-18T12:25:07.247Z,16.81
2022-12-18T12:30:10.337Z,16.62
2022-12-18T12:35:22.819Z,16.54
2022-12-18T12:46:07.507Z,16.73
2022-12-18T12:51:17.644Z,16.69
2022-12-18T12:56:20.247Z,16.83
2022-12-18T13:01:42.401Z,17.17
2022-12-18T13:06:55.428Z,17.15
2022-12-18T13:12:15.300Z,16.62
2022-12-18T13:22:29.044Z,16.74
2022-12-18T13:27:46.068Z,16.61
2022-12-18T13:32:48.520Z,16.62
2022-12-18T13:37:53.694Z,16.83
2022-12-18T13:43:13.483Z,16.80
2022-12-18T13:48:22.624Z,16.72
2022-12-18T13:53:52.177Z,16.62
2022-12-18T13:59:24.618Z,17.08
2022-12-18T14:04:30.907Z,17.18
2022-12-18T14:09:34.704Z,16.97
2022-12-18T14:14:38.180Z,16.96
2022-12-18T14:19:42.912Z,17.33
2022-12-18T14:24:44.371Z,17.17
2022-12-18T14:29:45.735Z,17.18
2022-12-18T14:34:54.860Z,17.19
2022-12-18T14:40:03.206Z,17.33
2022-12-18T14:45:41.083Z,17.33
2022-12-18T14:50:43.887Z,17.02
2022-12-18T14:55:48.511Z,17.43
2022-12-18T15:00:49.884Z,17.26
2022-12-18T15:05:51.260Z,16.89
2022-12-18T15:10:52.715Z,17.04
2022-12-18T15:15:55.338Z,16.66
2022-12-18T15:21:00.905Z,16.86
2022-12-18T15:26:04.439Z,16.53
2022-12-18T15:31:13.015Z,16.88
2022-12-18T15:36:15.962Z,16.62
2022-12-18T15:41:24.491Z,16.31
2022-12-18T15:46:27.456Z,16.36
2022-12-18T15:51:36.023Z,16.65
2022-12-18T15:56:56.011Z,16.58
2022-12-18T16:01:58.369Z,16.90
2022-12-18T16:07:19.631Z,16.77
2022-12-18T16:12:22.556Z,16.73
2022-12-18T16:17:23.927Z,16.97
2022-12-18T16:22:28.728Z,17.14
2022-12-18T16:27:30.132Z,16.80
2022-12-18T16:32:31.501Z,17.02
2022-12-18T16:37:32.867Z,17.05
2022-12-18T16:42:34.231Z,16.87
2022-12-18T16:47:35.684Z,17.02
2022-12-18T16:52:37.140Z,16.96
2022-12-18T16:57:38.560Z,17.04
2022-12-18T17:02:40.046Z,16.99
2022-12-18T17:07:41.540Z,17.00
2022-12-18T17:12:43.223Z,17.28
2022-12-18T17:17:45.120Z,17.11
2022-12-18T17:22:46.505Z,17.44
2022-12-18T17:27:47.949Z,17.37
2022-12-18T17:32:49.318Z,17.32
2022-12-18T17:37:50.675Z,17.36
2022-12-18T17:42:52.933Z,17.48
2022-12-18T17:47:59.625Z,17.13
2022-12-18T17:53:01.405Z,17.38
2022-12-18T17:58:02.816Z,16.98
2022-12-18T18:03:04.422Z,17.10
2022-12-18T18:08:06.096Z,17.18
2022-12-18T18:13:37.843Z,16.97
2022-12-18T18:18:41.152Z,16.90
2022-12-18T18:23:42.722Z,17.03
2022-12-18T18:28:46.105Z,16.92
2022-12-18T18:33:47.473Z,16.78
2022-12-18T18:38:49.759Z,17.11
2022-12-18T18:43:55.631Z,17.16
2022-12-18T18:48:57.005Z,17.36
2022-12-18T18:53:58.416Z,17.13
2022-12-18T18:59:01.549Z,17.58
2022-12-18T19:04:02.954Z,17.30
2022-12-18T19:09:04.831Z,17.60
2022-12-18T19:14:07.096Z,17.31
2022-12-18T19:19:08.482Z,17.28
2022-12-18T19:24:09.847Z,17.32
2022-12-18T19:29:11.826Z,17.20
2022-12-18T19:34:13.327Z,17.43
2022-12-18T19:39:15.940Z,17.11
2022-12-18T19:44:17.552Z,17.41
2022-12-18T19:49:21.738Z,17.36
2022-12-18T19:54:23.163Z,17.36
2022-12-18T19:59:27.066Z,17.40
2022-12-18T20:04:28.515Z,17.38
2022-12-18T20:09:29.932Z,17.68
2022-12-18T20:14:31.308Z,17.73
2022-12-18T20:19:32.668Z,17.49
2022-12-18T20:24:36.192Z,17.43
2022-12-18T20:29:37.642Z,17.10
2022-12-18T20:34:39.084Z,17.10
2022-12-18T20:39:41.027Z,17.10
2022-12-18T20:44:43.152Z,17.15
2022-12-18T20:49:45.577Z,16.84
2022-12-18T20:54:47.207Z,16.86
2022-12-18T20:59:48.638Z,17.12
2022-12-18T21:04:50.055Z,17.07
2022-12-18T21:09:51.433Z,17.02
2022-12-18T21:14:52.831Z,16.99
2022-12-18T21:19:54.231Z,16.67
2022-12-18T21:24:57.163Z,16.76
2022-12-18T21:29:58.607Z,16.53
2022-12-18T21:35:00.263Z,16.66
2022-12-18T21:40:01.670Z,17.16
2022-12-18T21:45:03.167Z,16.81
2022-12-18T21:50:04.765Z,17.04
2022-12-18T21:55:09.916Z,17.11
2022-12-18T22:00:19.161Z,17.09
2022-12-18T22:05:21.089Z,16.85
2022-12-18T22:10:22.452Z,16.82
2022-12-18T22:15:23.836Z,16.76
2022-12-18T22:20:25.236Z,16.67
2022-12-18T22:25:28.292Z,16.69
2022-12-18T22:30:29.691Z,16.87
2022-12-18T22:35:31.541Z,16.90
2022-12-18T22:40:32.909Z,16.92
2022-12-18T22:45:36.294Z,17.38
2022-12-18T22:50:40.183Z,17.18
2022-12-18T22:55:41.576Z,17.33
2022-12-18T23:00:42.952Z,17.23
2022-12-18T23:05:44.851Z,17.35
2022-12-18T23:10:46.248Z,17.50
2022-12-18T23:15:47.633Z,17.31
2022-12-18T23:20:49.039Z,17.00
2022-12-18T23:25:51.481Z,17.13
2022-12-18T23:30:52.967Z,17.12
2022-12-18T23:35:58.656Z,16.99
2022-12-18T23:41:00.019Z,16.77
2022-12-18T23:46:02.163Z,16.45
2022-12-18T23:51:07.865Z,16.71
2022-12-18T23:56:09.479Z,16.82
